createdAt,value
2022-12-15T00:00:11.238Z,84.30
2022-12-15T00:02:56.824Z,84.33
2022-12-15T00:05:42.214Z,84.87
2022-12-15T00:08:29.302Z,84.84
2022-12-15T00:11:14.847Z,85.57
2022-12-15T00:14:00.310Z,86.73
2022-12-15T00:16:45.887Z,86.75
2022-12-15T00:19:31.364Z,86.71
2022-12-15T00:22:17.127Z,86.84
2022-12-15T00:25:02.860Z,87.30
2022-12-15T00:27:48.405Z,87.47
2022-12-15T00:30:33.827Z,87.59
2022-12-15T00:33:19.029Z,88.00
2022-12-15T00:36:04.455Z,88.78
2022-12-15T00:38:41.643Z,88.53
2022-12-15T00:41:08.798Z,88.34
2022-12-15T00:43:36.818Z,88.47
2022-12-15T00:46:22.824Z,89.20
2022-12-15T00:48:49.944Z,89.75
2022-12-15T00:51:17.820Z,90.07
2022-12-15T00:54:04.097Z,90.40
2022-12-15T00:56:50.523Z,89.40
2022-12-15T00:59:35.995Z,90.26
2022-12-15T01:02:22.069Z,89.91
2022-12-15T01:05:07.614Z,90.57
2022-12-15T01:07:53.291Z,91.03
2022-12-15T01:10:38.474Z,91.11
2022-12-15T01:13:24.599Z,91.97
2022-12-15T01:16:10.800Z,91.14
2022-12-15T01:18:56.235Z,90.86
2022-12-15T01:21:25.082Z,90.80
2022-12-15T01:23:52.572Z,90.95
2022-12-15T01:26:19.830Z,90.70
2022-12-15T01:28:46.750Z,90.81
2022-12-15T01:31:14.120Z,91.38
2022-12-15T01:33:42.793Z,91.55
2022-12-15T01:36:10.709Z,90.68
2022-12-15T01:38:37.734Z,90.60
2022-12-15T01:41:09.820Z,90.78
2022-12-15T01:43:39.635Z,91.20
2022-12-15T01:46:14.163Z,91.35
2022-12-15T01:48:46.565Z,91.05
2022-12-15T01:51:27.108Z,90.80
2022-12-15T01:53:57.970Z,90.84
2022-12-15T01:56:29.146Z,91.24
2022-12-15T01:59:03.296Z,91.32
2022-12-15T02:02:02.990Z,92.37
2022-12-15T02:04:31.982Z,91.97
2022-12-15T02:06:58.867Z,91.59
2022-12-15T02:09:27.324Z,92.02
2022-12-15T02:12:21.866Z,91.98
2022-12-15T02:15:24.555Z,92.08
2022-12-15T02:18:12.496Z,91.94
2022-12-15T02:21:02.534Z,92.80
2022-12-15T02:23:32.671Z,92.90
2022-12-15T02:26:24.310Z,92.18
2022-12-15T02:29:18.456Z,92.72
2022-12-15T02:32:14.464Z,92.57
2022-12-15T02:34:47.874Z,92.82
2022-12-15T02:37:21.211Z,92.54
2022-12-15T02:39:48.411Z,92.76
2022-12-15T02:42:16.650Z,93.30
2022-12-15T02:44:55.631Z,93.03
2022-12-15T02:47:22.561Z,92.79
2022-12-15T02:50:07.873Z,92.87
2022-12-15T02:52:51.499Z,92.79
2022-12-15T02:55:50.366Z,92.77
2022-12-15T02:58:29.843Z,93.34
2022-12-15T03:01:09.116Z,92.96
2022-12-15T03:03:38.460Z,92.42
2022-12-15T03:06:05.954Z,92.52
2022-12-15T03:08:32.949Z,92.38
2022-12-15T03:11:00.210Z,92.30
2022-12-15T03:13:27.252Z,92.91
2022-12-15T03:15:54.677Z,92.71
2022-12-15T03:18:21.841Z,92.35
2022-12-15T03:20:50.276Z,92.29
2022-12-15T03:23:17.306Z,92.26
2022-12-15T03:25:49.948Z,91.94
2022-12-15T03:28:16.963Z,92.15
2022-12-15T03:30:44.808Z,92.71
2022-12-15T03:33:11.883Z,92.91
2022-12-15T03:35:38.779Z,92.41
2022-12-15T03:38:05.731Z,92.16
2022-12-15T03:40:32.810Z,92.79
2022-12-15T03:42:59.763Z,92.45
2022-12-15T03:45:28.406Z,92.47
2022-12-15T03:47:56.963Z,92.40
2022-12-15T03:50:26.478Z,93.06
2022-12-15T03:52:55.722Z,93.33
2022-12-15T03:55:23.706Z,92.60
2022-12-15T03:57:51.372Z,92.20
2022-12-15T04:00:20.367Z,92.78
2022-12-15T04:02:50.113Z,92.95
2022-12-15T04:05:26.967Z,93.08
2022-12-15T04:07:55.374Z,93.59
2022-12-15T04:10:26.274Z,93.42
2022-12-15T04:12:58.874Z,93.07
2022-12-15T04:15:26.625Z,92.51
2022-12-15T04:17:54.005Z,92.89
2022-12-15T04:20:21.347Z,93.54
2022-12-15T04:22:49.826Z,93.34
2022-12-15T04:25:39.003Z,93.08
2022-12-15T04:28:25.200Z,92.75
2022-12-15T04:31:14.261Z,92.66
2022-12-15T04:34:06.493Z,93.06
2022-12-15T04:36:53.228Z,92.76
2022-12-15T04:39:38.776Z,93.58
2022-12-15T04:42:24.477Z,93.59
2022-12-15T04:45:16.997Z,93.67
2022-12-15T04:48:05.855Z,92.99
2022-12-15T04:50:51.444Z,92.69
2022-12-15T04:53:38.130Z,92.63
2022-12-15T04:56:28.318Z,92.89
2022-12-15T04:59:13.830Z,93.36
2022-12-15T05:01:59.093Z,92.92
2022-12-15T05:04:44.528Z,92.63
2022-12-15T05:07:30.157Z,91.98
2022-12-15T05:10:16.050Z,92.63
2022-12-15T05:13:02.967Z,92.52
2022-12-15T05:15:49.141Z,93.00
2022-12-15T05:18:34.481Z,93.37
2022-12-15T05:21:20.024Z,93.06
2022-12-15T05:24:05.547Z,92.78
2022-12-15T05:26:53.276Z,92.79
2022-12-15T05:29:40.251Z,92.61
2022-12-15T05:32:08.568Z,93.13
2022-12-15T05:34:37.353Z,93.69
2022-12-15T05:37:05.818Z,92.69
2022-12-15T05:39:33.093Z,92.43
2022-12-15T05:42:00.259Z,92.56
2022-12-15T05:44:28.968Z,92.58
2022-12-15T05:46:55.883Z,92.70
2022-12-15T05:49:25.949Z,93.12
2022-12-15T05:51:53.054Z,92.68
2022-12-15T05:54:20.357Z,91.95
2022-12-15T05:56:50.241Z,92.31
2022-12-15T05:59:17.997Z,91.69
2022-12-15T06:01:45.240Z,91.89
2022-12-15T06:04:15.314Z,92.63
2022-12-15T06:06:42.314Z,92.75
2022-12-15T06:09:10.110Z,92.37
2022-12-15T06:11:37.730Z,91.84
2022-12-15T06:14:04.874Z,91.39
2022-12-15T06:16:32.004Z,91.51
2022-12-15T06:19:01.169Z,91.82
2022-12-15T06:21:36.789Z,92.58
2022-12-15T06:24:05.689Z,92.03
2022-12-15T06:26:34.135Z,91.63
2022-12-15T06:29:05.346Z,90.82
2022-12-15T06:31:32.926Z,91.50
2022-12-15T06:34:02.409Z,91.23
2022-12-15T06:36:30.907Z,92.12
2022-12-15T06:39:04.436Z,91.82
2022-12-15T06:41:32.425Z,90.10
2022-12-15T06:44:00.213Z,90.04
2022-12-15T06:46:28.857Z,89.42
2022-12-15T06:48:56.560Z,89.46
2022-12-15T06:51:23.975Z,89.56
2022-12-15T06:53:54.425Z,90.11
2022-12-15T06:56:32.206Z,89.55
2022-12-15T06:59:00.304Z,88.55
2022-12-15T07:01:27.740Z,88.67
2022-12-15T07:03:55.758Z,88.57
2022-12-15T07:06:23.123Z,89.27
2022-12-15T07:08:52.640Z,89.01
2022-12-15T07:11:21.193Z,88.34
2022-12-15T07:13:52.513Z,89.35
2022-12-15T07:16:21.613Z,87.58
2022-12-15T07:18:49.429Z,88.48
2022-12-15T07:21:16.807Z,88.07
2022-12-15T07:24:00.826Z,88.46
2022-12-15T07:26:28.887Z,87.96
2022-12-15T07:28:56.299Z,86.76
2022-12-15T07:31:23.782Z,88.74
2022-12-15T07:33:52.752Z,88.37
2022-12-15T07:36:20.215Z,88.83
2022-12-15T07:38:50.529Z,89.21
2022-12-15T07:41:19.246Z,88.55
2022-12-15T07:43:47.224Z,88.19
2022-12-15T07:46:14.383Z,89.13
2022-12-15T07:48:41.545Z,89.76
2022-12-15T07:51:17.385Z,89.00
2022-12-15T07:53:47.043Z,89.10
2022-12-15T07:56:13.924Z,88.99
2022-12-15T07:58:41.117Z,89.89
2022-12-15T08:01:12.782Z,90.28
2022-12-15T08:03:41.190Z,89.46
2022-12-15T08:06:11.405Z,88.95
2022-12-15T08:08:39.304Z,87.63
2022-12-15T08:11:11.647Z,87.65
2022-12-15T08:16:26.603Z,87.94
2022-12-15T08:18:53.999Z,88.49
2022-12-15T08:21:20.940Z,88.28
2022-12-15T08:23:48.212Z,88.31
2022-12-15T08:26:17.089Z,88.52
2022-12-15T08:28:44.320Z,88.37
2022-12-15T08:31:16.422Z,88.92
2022-12-15T08:33:43.471Z,89.71
2022-12-15T08:36:13.190Z,89.78
2022-12-15T08:38:42.089Z,89.98
2022-12-15T08:41:16.987Z,89.27
2022-12-15T08:43:48.537Z,88.87
2022-12-15T08:46:18.316Z,89.13
2022-12-15T08:48:46.260Z,88.33
2022-12-15T08:51:13.861Z,88.92
2022-12-15T08:53:40.802Z,88.86
2022-12-15T08:56:10.395Z,89.58
2022-12-15T08:58:37.421Z,89.29
2022-12-15T09:01:07.535Z,89.42
2022-12-15T09:03:36.163Z,89.55
2022-12-15T09:06:07.966Z,89.50
2022-12-15T09:08:36.057Z,89.83
2022-12-15T09:11:03.637Z,90.17
2022-12-15T09:13:31.094Z,90.59
2022-12-15T09:16:11.290Z,89.86
2022-12-15T09:18:41.110Z,89.00
2022-12-15T09:21:08.466Z,89.18
2022-12-15T09:23:37.009Z,88.93
2022-12-15T09:26:10.037Z,88.50
2022-12-15T09:28:38.484Z,89.40
2022-12-15T09:31:16.987Z,88.81
2022-12-15T09:33:44.877Z,88.62
2022-12-15T09:36:15.528Z,86.98
2022-12-15T09:38:44.146Z,85.45
2022-12-15T09:41:14.069Z,87.49
2022-12-15T09:43:50.301Z,87.44
2022-12-15T10:17:50.341Z,92.09
2022-12-15T10:20:20.693Z,91.15
2022-12-15T10:25:35.463Z,88.64
2022-12-15T10:28:27.253Z,88.87
2022-12-15T10:31:08.086Z,87.26
2022-12-15T10:33:39.703Z,86.94
2022-12-15T10:36:15.733Z,87.87
2022-12-15T10:38:47.520Z,87.68
2022-12-15T10:41:26.748Z,88.20
2022-12-15T10:43:54.720Z,87.73
2022-12-15T10:46:29.921Z,88.29
2022-12-15T10:49:08.913Z,87.04
2022-12-15T10:51:43.737Z,87.13
2022-12-15T10:54:10.593Z,86.94
2022-12-15T10:56:55.788Z,88.12
2022-12-15T10:59:31.944Z,88.41
2022-12-15T11:02:23.981Z,87.04
2022-12-15T11:05:02.811Z,85.30
2022-12-15T11:07:42.285Z,86.45
2022-12-15T11:10:53.498Z,86.93
2022-12-15T11:13:22.942Z,88.39
2022-12-15T11:15:53.213Z,87.71
2022-12-15T11:18:42.356Z,88.19
2022-12-15T11:21:22.159Z,87.75
2022-12-15T11:24:02.088Z,88.14
2022-12-15T11:27:11.714Z,88.67
2022-12-15T11:30:14.221Z,88.80
2022-12-15T11:32:53.761Z,89.42
2022-12-15T11:35:43.951Z,89.90
2022-12-15T11:38:28.938Z,89.58
2022-12-15T11:41:01.523Z,88.65
2022-12-15T11:43:53.081Z,89.04
2022-12-15T11:46:20.158Z,87.92
2022-12-15T11:49:20.580Z,87.99
2022-12-15T11:52:02.449Z,88.03
2022-12-15T11:54:34.904Z,87.62
2022-12-15T11:57:32.663Z,86.88
2022-12-15T12:00:13.765Z,86.38
2022-12-15T12:02:55.954Z,86.24
2022-12-15T12:05:29.093Z,86.91
2022-12-15T12:08:29.476Z,87.61
2022-12-15T12:11:08.913Z,87.12
2022-12-15T12:14:11.485Z,88.10
2022-12-15T12:16:41.877Z,87.28
2022-12-15T12:19:18.884Z,87.42
2022-12-15T12:21:51.297Z,88.20
2022-12-15T12:24:30.518Z,88.00
2022-12-15T12:27:04.421Z,89.50
2022-12-15T12:29:58.776Z,89.11
2022-12-15T12:32:47.423Z,89.50
2022-12-15T12:35:33.721Z,89.33
2022-12-15T12:38:04.492Z,89.02
2022-12-15T12:40:41.017Z,89.44
2022-12-15T12:43:22.866Z,89.93
2022-12-15T12:46:01.380Z,88.75
2022-12-15T12:48:34.927Z,88.79
2022-12-15T12:51:31.417Z,88.34
2022-12-15T12:53:59.537Z,89.02
2022-12-15T12:56:45.575Z,88.37
2022-12-15T12:59:29.672Z,87.57
2022-12-15T13:01:58.910Z,88.15
2022-12-15T13:04:28.596Z,88.37
2022-12-15T13:06:56.892Z,87.77
2022-12-15T13:09:37.067Z,88.01
2022-12-15T13:12:20.629Z,88.55
2022-12-15T13:14:51.969Z,89.39
2022-12-15T13:17:38.295Z,89.25
2022-12-15T13:20:17.889Z,89.70
2022-12-15T13:22:44.999Z,89.18
2022-12-15T13:25:38.264Z,89.09
2022-12-15T13:28:24.820Z,88.30
2022-12-15T13:31:16.924Z,88.75
2022-12-15T13:33:52.849Z,88.74
2022-12-15T13:36:38.088Z,88.16
2022-12-15T13:39:17.335Z,87.40
2022-12-15T13:42:15.130Z,88.16
2022-12-15T13:44:52.007Z,88.52
2022-12-15T13:47:18.829Z,88.01
2022-12-15T13:50:10.489Z,88.68
2022-12-15T13:55:40.277Z,89.20
2022-12-15T13:58:18.158Z,88.95
2022-12-15T14:00:52.390Z,88.27
2022-12-15T14:03:19.830Z,88.66
2022-12-15T14:05:58.710Z,88.98
2022-12-15T14:08:29.442Z,88.89
2022-12-15T14:10:58.993Z,89.39
2022-12-15T14:13:28.177Z,88.61
2022-12-15T14:16:03.319Z,87.78
2022-12-15T14:18:32.953Z,87.66
2022-12-15T14:21:01.369Z,86.95
2022-12-15T14:23:31.085Z,86.02
2022-12-15T14:26:07.370Z,84.96
2022-12-15T14:28:36.959Z,86.56
2022-12-15T14:31:23.198Z,87.36
2022-12-15T14:34:18.801Z,86.35
2022-12-15T14:36:46.245Z,85.51
2022-12-15T14:39:19.176Z,86.67
2022-12-15T14:41:49.037Z,86.98
2022-12-15T14:44:38.074Z,85.83
2022-12-15T14:47:16.253Z,87.63
2022-12-15T14:49:45.544Z,88.10
2022-12-15T14:52:34.500Z,87.80
2022-12-15T14:55:22.046Z,85.99
2022-12-15T14:57:53.599Z,84.86
2022-12-15T15:00:29.711Z,82.94
2022-12-15T15:03:09.887Z,89.99
2022-12-15T15:03:10.727Z,87.64
2022-12-15T15:03:18.184Z,83.23
2022-12-15T15:05:59.484Z,82.20
2022-12-15T15:08:34.534Z,84.59
2022-12-15T15:11:29.708Z,88.22
2022-12-15T15:14:00.457Z,88.86
2022-12-15T15:16:27.704Z,90.24
2022-12-15T15:18:56.504Z,89.99
2022-12-15T15:21:29.818Z,91.03
2022-12-15T15:24:09.831Z,91.17
2022-12-15T15:26:37.270Z,91.44
2022-12-15T15:29:25.011Z,91.86
2022-12-15T15:31:53.313Z,91.20
2022-12-15T15:34:20.222Z,91.55
2022-12-15T15:36:47.460Z,91.79
2022-12-15T15:39:16.124Z,92.16
2022-12-15T15:41:43.087Z,92.78
2022-12-15T15:44:15.491Z,92.55
2022-12-15T15:46:48.575Z,91.87
2022-12-15T15:49:19.781Z,91.77
2022-12-15T15:51:47.537Z,91.95
2022-12-15T15:54:18.084Z,91.91
2022-12-15T15:56:45.126Z,91.35
2022-12-15T15:59:14.084Z,91.23
2022-12-15T16:01:41.247Z,91.18
2022-12-15T16:04:08.408Z,90.80
2022-12-15T16:06:36.178Z,89.90
2022-12-15T16:09:05.347Z,89.64
2022-12-15T16:11:32.485Z,89.94
2022-12-15T16:13:59.413Z,90.17
2022-12-15T16:16:31.449Z,90.54
2022-12-15T16:18:59.151Z,90.58
2022-12-15T16:21:28.065Z,91.88
2022-12-15T16:23:57.266Z,91.58
2022-12-15T16:26:30.623Z,91.44
2022-12-15T16:28:58.314Z,91.12
2022-12-15T16:31:41.227Z,91.60
2022-12-15T16:34:09.065Z,91.98
2022-12-15T16:36:36.608Z,91.92
2022-12-15T16:39:04.746Z,91.96
2022-12-15T16:41:31.628Z,92.04
2022-12-15T16:43:58.808Z,91.92
2022-12-15T16:46:26.176Z,92.09
2022-12-15T16:48:53.695Z,91.33
2022-12-15T16:51:37.179Z,91.21
2022-12-15T16:54:04.364Z,91.16
2022-12-15T16:56:31.277Z,90.99
2022-12-15T16:59:30.797Z,89.32
2022-12-15T17:01:45.471Z,88.38
2022-12-15T17:04:12.851Z,88.60
2022-12-15T17:06:40.052Z,88.13
2022-12-15T17:09:08.942Z,88.52
2022-12-15T17:11:36.052Z,88.65
2022-12-15T17:14:03.115Z,88.46
2022-12-15T17:16:30.098Z,87.90
2022-12-15T17:18:57.108Z,85.61
2022-12-15T17:21:30.823Z,85.10
2022-12-15T17:24:06.451Z,84.63
2022-12-15T17:26:36.479Z,85.84
2022-12-15T17:29:16.198Z,86.93
2022-12-15T17:31:43.137Z,85.10
2022-12-15T17:34:32.593Z,84.88
2022-12-15T17:37:02.972Z,85.04
2022-12-15T17:39:31.212Z,85.27
2022-12-15T17:42:00.542Z,84.13
2022-12-15T17:44:33.581Z,82.85
2022-12-15T17:47:02.535Z,82.83
2022-12-15T17:49:35.025Z,84.84
2022-12-15T17:52:15.702Z,85.52
2022-12-15T17:54:42.739Z,83.83
2022-12-15T17:57:12.723Z,84.94
2022-12-15T17:59:39.794Z,83.57
2022-12-15T18:02:08.732Z,83.21
2022-12-15T18:04:35.954Z,84.63
2022-12-15T18:07:02.961Z,84.02
2022-12-15T18:09:29.998Z,82.88
2022-12-15T18:11:56.963Z,82.52
2022-12-15T18:14:24.129Z,81.99
2022-12-15T18:16:51.026Z,80.99
2022-12-15T18:19:18.009Z,84.03
2022-12-15T18:21:45.003Z,85.54
2022-12-15T18:24:21.742Z,86.00
2022-12-15T18:26:48.977Z,85.08
2022-12-15T18:29:20.443Z,83.92
2022-12-15T18:31:48.980Z,85.95
2022-12-15T18:34:21.164Z,83.89
2022-12-15T18:36:48.532Z,84.92
2022-12-15T18:39:19.650Z,85.79
2022-12-15T18:41:47.360Z,86.42
2022-12-15T18:44:26.570Z,85.03
2022-12-15T18:46:55.121Z,84.34
2022-12-15T18:49:23.341Z,86.49
2022-12-15T18:51:50.600Z,86.75
2022-12-15T18:54:20.979Z,86.28
2022-12-15T18:56:48.091Z,85.96
2022-12-15T18:59:17.231Z,86.94
2022-12-15T19:01:46.892Z,87.36
2022-12-15T19:04:14.221Z,87.28
2022-12-15T19:06:41.571Z,86.71
2022-12-15T19:09:19.769Z,86.30
2022-12-15T19:12:06.788Z,87.13
2022-12-15T19:14:43.183Z,85.82
2022-12-15T19:17:29.149Z,85.86
2022-12-15T19:20:14.841Z,86.05
2022-12-15T19:22:42.682Z,88.37
2022-12-15T19:25:25.132Z,89.53
2022-12-15T19:27:59.411Z,90.25
2022-12-15T19:30:29.735Z,90.48
2022-12-15T19:32:57.481Z,89.56
2022-12-15T19:35:25.980Z,88.66
2022-12-15T19:37:56.101Z,86.52
2022-12-15T19:40:27.745Z,87.05
2022-12-15T19:42:55.554Z,88.55
2022-12-15T19:45:28.009Z,89.94
2022-12-15T19:47:55.754Z,89.54
2022-12-15T19:50:30.123Z,90.27
2022-12-15T19:53:01.994Z,89.68
2022-12-15T19:55:33.096Z,90.42
2022-12-15T19:58:01.417Z,87.65
2022-12-15T20:00:28.373Z,89.34
2022-12-15T20:02:55.801Z,89.95
2022-12-15T20:05:25.195Z,90.35
2022-12-15T20:07:53.589Z,89.07
2022-12-15T20:10:31.712Z,86.97
2022-12-15T20:13:00.681Z,86.50
2022-12-15T20:15:27.731Z,87.78
2022-12-15T20:17:57.870Z,89.15
2022-12-15T20:20:29.327Z,88.95
2022-12-15T20:23:01.588Z,88.21
2022-12-15T20:25:32.602Z,89.10
2022-12-15T20:28:03.160Z,89.52
2022-12-15T20:30:35.708Z,89.66
2022-12-15T20:33:04.900Z,88.88
2022-12-15T20:35:34.823Z,88.72
2022-12-15T20:38:17.304Z,87.09
2022-12-15T20:40:44.492Z,86.56
2022-12-15T20:43:17.374Z,86.20
2022-12-15T20:45:46.291Z,85.65
2022-12-15T20:48:15.230Z,85.60
2022-12-15T20:50:48.445Z,85.76
2022-12-15T20:53:21.585Z,85.75
2022-12-15T20:55:50.229Z,85.68
2022-12-15T20:58:18.743Z,85.75
2022-12-15T21:00:47.069Z,85.87
2022-12-15T21:03:26.725Z,86.68
2022-12-15T21:05:55.965Z,86.09
2022-12-15T21:08:29.831Z,85.48
2022-12-15T21:11:01.527Z,85.24
2022-12-15T21:13:31.980Z,85.65
2022-12-15T21:15:59.186Z,86.85
2022-12-15T21:21:22.924Z,86.60
2022-12-15T21:23:50.025Z,87.21
2022-12-15T21:26:24.032Z,87.49
2022-12-15T21:28:59.872Z,87.51
2022-12-15T21:31:27.080Z,87.35
2022-12-15T21:33:54.941Z,86.53
2022-12-15T21:36:22.484Z,87.29
2022-12-15T21:38:52.242Z,86.86
2022-12-15T21:41:22.226Z,86.91
2022-12-15T21:43:50.002Z,86.17
2022-12-15T21:46:24.616Z,85.78
2022-12-15T21:49:14.767Z,84.46
2022-12-15T21:51:43.953Z,84.48
2022-12-15T21:54:30.348Z,85.47
2022-12-15T21:56:58.147Z,87.67
2022-12-15T21:59:25.957Z,86.69
2022-12-15T22:01:55.409Z,84.66
2022-12-15T22:04:35.345Z,83.22
2022-12-15T22:07:02.483Z,81.39
2022-12-15T22:09:29.559Z,80.01
2022-12-15T22:11:56.999Z,79.46
2022-12-15T22:14:34.928Z,78.56
2022-12-15T22:17:18.083Z,77.91
2022-12-15T22:19:45.757Z,77.59
2022-12-15T22:22:14.030Z,76.96
2022-12-15T22:24:40.966Z,77.50
2022-12-15T22:27:26.824Z,76.66
2022-12-15T22:29:53.786Z,77.47
2022-12-15T22:32:20.694Z,78.15
2022-12-15T22:34:47.649Z,76.84
2022-12-15T22:37:14.486Z,76.75
2022-12-15T22:39:41.619Z,77.12
2022-12-15T22:42:17.189Z,78.33
2022-12-15T22:44:44.970Z,81.53
2022-12-15T22:47:12.170Z,79.32
2022-12-15T22:49:40.525Z,78.55
2022-12-15T22:52:21.206Z,79.79
2022-12-15T22:54:48.601Z,82.28
2022-12-15T22:57:18.404Z,81.85
2022-12-15T23:00:00.939Z,79.83
2022-12-15T23:02:32.804Z,79.75
2022-12-15T23:04:59.800Z,79.90
2022-12-15T23:07:26.699Z,78.41
2022-12-15T23:10:13.966Z,77.83
2022-12-15T23:12:41.240Z,77.58
2022-12-15T23:15:27.563Z,76.94
2022-12-15T23:17:54.637Z,77.70
2022-12-15T23:20:21.977Z,76.55
2022-12-15T23:22:48.841Z,76.80
2022-12-15T23:25:16.337Z,76.47
2022-12-15T23:27:43.209Z,76.67
2022-12-15T23:30:12.814Z,76.57
2022-12-15T23:32:39.711Z,76.72
2022-12-15T23:35:06.972Z,75.95
2022-12-15T23:37:35.118Z,76.91
2022-12-15T23:40:02.084Z,76.97
2022-12-15T23:42:29.038Z,76.46
2022-12-15T23:44:55.965Z,76.36
2022-12-15T23:47:23.046Z,76.40
2022-12-15T23:49:50.037Z,76.90
2022-12-15T23:52:18.555Z,77.36
2022-12-15T23:54:45.634Z,77.37
2022-12-15T23:57:12.572Z,77.17
2022-12-15T23:59:39.451Z,78.23
